Time;durP1;ratioP1;P1;durP2;ratioP2;P2;SDS_P1;SDS_P2;PMS_P1;PMS_P2;Temp;Humidity;BMP_temperature;BMP_pressure;BME280_temperature;BME280_humidity;BME280_pressure;Samples;Min_cycle;Max_cycle;Signal;HPM_P1;HPM_P2
2024/02/05 00:00:06;;;;;;;;;;;;;;;26.88;38.81;95170.28;5046431;28;7081;-39
2024/02/05 00:03:07;;;;;;;;;;;;;;;26.87;38.60;95183.31;5057681;28;7334;-40
2024/02/05 00:05:32;;;;;;;;;;;;;;;26.82;38.83;95170.25;4990090;28;8418;-39
2024/02/05 00:08:09;;;;;;;;;;;;;;;26.83;38.96;95171.78;4998358;28;8851;-39
2024/02/05 00:10:36;;;;;;;;;;;;;;;26.86;38.89;95167.28;5019918;28;8751;-44
2024/02/05 00:13:02;;;;;;;;;;;;;;;26.86;38.79;95164.50;4975746;28;7367;-42
2024/02/05 00:15:28;;;;;;;;;;;;;;;26.85;38.65;95160.22;5001029;28;7503;-43
2024/02/05 00:17:55;;;;;;;;;;;;;;;26.84;38.31;95164.97;4975253;28;7191;-42
2024/02/05 00:20:22;;;;;;;;;;;;;;;26.85;38.23;95160.22;4992607;28;7117;-42
2024/02/05 00:23:15;;;;;;;;;;;;;;;26.89;38.44;95183.56;4991547;28;7369;-42
2024/02/05 00:25:51;;;;;;;;;;;;;;;26.85;38.63;95163.75;4984506;28;7634;-42
2024/02/05 00:28:29;;;;;;;;;;;;;;;26.86;38.84;95172.78;4984275;28;7293;-42
2024/02/05 00:30:56;;;;;;;;;;;;;;;26.84;38.65;95181.53;4976294;28;7300;-42
2024/02/05 00:33:22;;;;;;;;;;;;;;;26.81;38.81;95177.03;5002917;28;9206;-41
2024/02/05 00:35:49;;;;;;;;;;;;;;;26.80;39.01;95172.75;4994747;28;7507;-42
2024/02/05 00:38:32;;;;;;;;;;;;;;;26.84;38.41;95172.50;4995093;28;7134;-41
2024/02/05 00:41:13;;;;;;;;;;;;;;;26.84;38.47;95167.75;5019993;28;9067;-42
2024/02/05 00:43:59;;;;;;;;;;;;;;;26.81;38.70;95176.28;5068755;28;6991;-41
2024/02/05 00:46:26;;;;;;;;;;;;;;;26.77;38.57;95176.50;5054769;28;6994;-42
2024/02/05 00:49:14;;;;;;;;;;;;;;;26.77;38.58;95171.00;5047999;28;7931;-42
2024/02/05 00:51:40;;;;;;;;;;;;;;;26.76;38.81;95177.03;5067875;28;7247;-41
2024/02/05 00:54:08;;;;;;;;;;;;;;;26.79;38.58;95174.03;5071046;28;6974;-42
2024/02/05 00:56:45;;;;;;;;;;;;;;;26.79;38.53;95174.03;5061567;28;7262;-42
2024/02/05 00:59:17;;;;;;;;;;;;;;;26.78;38.37;95174.50;5054924;28;9046;-41
2024/02/05 01:01:50;;;;;;;;;;;;;;;26.79;38.57;95176.03;5055654;28;9145;-42
2024/02/05 01:04:19;;;;;;;;;;;;;;;26.78;38.50;95177.28;5056407;28;6953;-42
2024/02/05 01:07:11;;;;;;;;;;;;;;;26.77;38.55;95173.03;5074908;28;6986;-42
2024/02/05 01:09:36;;;;;;;;;;;;;;;26.74;38.62;95174.78;5065405;28;8715;-42
2024/02/05 01:12:03;;;;;;;;;;;;;;;26.78;38.03;95177.28;5069345;28;7197;-42
2024/02/05 01:14:32;;;;;;;;;;;;;;;26.78;38.62;95180.03;5072674;28;7908;-44
2024/02/05 01:17:11;;;;;;;;;;;;;;;26.79;38.61;95181.56;5069598;28;7061;-43
2024/02/05 01:19:48;;;;;;;;;;;;;;;26.77;38.49;95181.31;5048245;28;7258;-43
2024/02/05 01:22:19;;;;;;;;;;;;;;;26.77;38.56;95178.53;5051669;28;7225;-41
2024/02/05 01:24:46;;;;;;;;;;;;;;;26.75;38.51;95181.78;5071150;28;9126;-40
2024/02/05 01:27:27;;;;;;;;;;;;;;;26.76;38.49;95179.78;5063534;28;7323;-42
2024/02/05 01:30:10;;;;;;;;;;;;;;;26.77;38.38;95170.25;5070969;28;8978;-40
2024/02/05 01:32:44;;;;;;;;;;;;;;;26.75;38.26;95167.25;5057344;28;7026;-41
2024/02/05 01:35:10;;;;;;;;;;;;;;;26.74;38.76;95176.78;5057429;28;9064;-40
2024/02/05 01:37:37;;;;;;;;;;;;;;;26.74;38.26;95166.50;5048085;28;7256;-40
2024/02/05 01:40:09;;;;;;;;;;;;;;;26.76;38.29;95165.97;5056178;28;6995;-43
2024/02/05 01:42:40;;;;;;;;;;;;;;;26.75;38.23;95159.69;5073497;28;7095;-41
2024/02/05 01:45:13;;;;;;;;;;;;;;;26.77;38.31;95159.22;5071645;28;8915;-41
2024/02/05 01:47:51;;;;;;;;;;;;;;;26.75;38.63;95153.44;5068932;28;7184;-42
2024/02/05 01:50:19;;;;;;;;;;;;;;;26.76;38.34;95152.94;5050506;28;7113;-41
2024/02/05 01:52:51;;;;;;;;;;;;;;;26.76;38.40;95154.94;5073896;28;9159;-42
2024/02/05 01:55:21;;;;;;;;;;;;;;;26.75;38.52;95148.66;5065558;28;7213;-41
2024/02/05 01:57:53;;;;;;;;;;;;;;;26.76;38.26;95147.44;5070833;28;9134;-41
2024/02/05 02:00:25;;;;;;;;;;;;;;;26.77;38.25;95151.66;5051915;28;9070;-40
2024/02/05 02:02:54;;;;;;;;;;;;;;;26.77;38.21;95148.91;5062193;28;7253;-41
2024/02/05 02:05:23;;;;;;;;;;;;;;;26.78;38.25;95149.69;5073552;28;7973;-41
2024/02/05 02:07:50;;;;;;;;;;;;;;;26.76;38.33;95154.94;5055652;28;7220;-43
2024/02/05 02:10:23;;;;;;;;;;;;;;;26.72;38.40;95146.88;5063183;28;7527;-40
2024/02/05 02:13:21;;;;;;;;;;;;;;;26.76;37.93;95146.66;5046369;28;7244;-40
2024/02/05 02:15:51;;;;;;;;;;;;;;;26.77;38.27;95146.16;5061256;28;7265;-41
2024/02/05 02:18:29;;;;;;;;;;;;;;;26.75;37.92;95139.66;5071316;28;7206;-41
2024/02/05 02:20:58;;;;;;;;;;;;;;;26.76;38.32;95141.91;5059034;28;7336;-41
2024/02/05 02:23:29;;;;;;;;;;;;;;;26.74;38.13;95133.38;5067936;28;9286;-41
2024/02/05 02:25:57;;;;;;;;;;;;;;;26.73;38.13;95125.59;5057963;28;9106;-41
2024/02/05 02:28:27;;;;;;;;;;;;;;;26.74;38.26;95127.84;5053955;28;7450;-41
2024/02/05 02:30:56;;;;;;;;;;;;;;;26.74;38.48;95127.09;5066011;28;9165;-40
2024/02/05 02:33:32;;;;;;;;;;;;;;;26.75;38.19;95117.56;5068065;28;7673;-39
2024/02/05 02:36:05;;;;;;;;;;;;;;;26.77;38.30;95126.09;5053894;28;8033;-39
2024/02/05 02:38:50;;;;;;;;;;;;;;;26.75;38.08;95131.38;5046982;28;9439;-39
2024/02/05 02:41:41;;;;;;;;;;;;;;;26.76;38.24;95135.63;5068133;28;7242;-41
2024/02/05 02:44:10;;;;;;;;;;;;;;;26.77;37.95;95134.38;5066048;28;7061;-39
2024/02/05 02:46:40;;;;;;;;;;;;;;;26.76;38.28;95132.88;5069708;28;6885;-39
2024/02/05 02:49:25;;;;;;;;;;;;;;;26.74;38.13;95133.38;5055990;28;7314;-40
2024/02/05 02:51:52;;;;;;;;;;;;;;;26.75;38.38;95139.66;5055017;28;9020;-40
2024/02/05 02:54:20;;;;;;;;;;;;;;;26.74;38.60;95141.66;5072423;28;8001;-39
2024/02/05 02:57:01;;;;;;;;;;;;;;;26.72;38.03;95132.34;5054605;28;7938;-39
2024/02/05 02:59:30;;;;;;;;;;;;;;;26.75;37.97;95136.91;5070826;28;7362;-39
2024/02/05 03:02:04;;;;;;;;;;;;;;;26.74;37.97;95138.13;5072739;28;7184;-39
2024/02/05 03:04:43;;;;;;;;;;;;;;;26.74;38.28;95138.13;5063472;28;7260;-39
2024/02/05 03:07:18;;;;;;;;;;;;;;;26.71;38.06;95139.09;5051887;28;9070;-39
2024/02/05 03:09:44;;;;;;;;;;;;;;;26.73;37.96;95144.91;5070267;28;7606;-39
2024/02/05 03:12:19;;;;;;;;;;;;;;;26.72;38.21;95148.88;5072896;28;7592;-39
2024/02/05 03:14:54;;;;;;;;;;;;;;;26.73;38.04;95142.16;5048700;28;7253;-40
2024/02/05 03:17:29;;;;;;;;;;;;;;;26.72;38.23;95144.13;5054073;28;9041;-39
2024/02/05 03:20:08;;;;;;;;;;;;;;;26.71;37.97;95139.09;5066657;28;7165;-39
2024/02/05 03:22:34;;;;;;;;;;;;;;;26.70;38.26;95143.88;5063395;28;9064;-39
2024/02/05 03:25:02;;;;;;;;;;;;;;;26.69;38.69;95142.38;5070041;28;7247;-39
2024/02/05 03:27:39;;;;;;;;;;;;;;;26.67;38.32;95136.59;5059519;28;9330;-39
2024/02/05 03:30:18;;;;;;;;;;;;;;;26.70;38.21;95127.31;5063732;28;9128;-40
2024/02/05 03:33:17;;;;;;;;;;;;;;;26.71;37.84;95133.56;5045706;28;8832;-40
2024/02/05 03:35:58;;;;;;;;;;;;;;;26.70;37.83;95140.38;5010955;28;7318;-40
2024/02/05 03:38:25;;;;;;;;;;;;;;;26.70;38.62;95146.63;5010491;28;9200;-39
2024/02/05 03:41:19;;;;;;;;;;;;;;;26.67;38.02;95149.63;5011055;28;7339;-56
2024/02/05 03:43:48;;;;;;;;;;;;;;;26.67;38.16;95144.09;4953077;28;9163;-57
2024/02/05 03:46:24;;;;;;;;;;;;;;;26.65;38.06;95147.38;4939182;28;7050;-56
2024/02/05 03:49:00;;;;;;;;;;;;;;;26.66;38.25;95154.41;4940905;29;7062;-56
2024/02/05 03:51:26;;;;;;;;;;;;;;;26.66;38.21;95154.41;4950044;28;9356;-56
2024/02/05 03:53:52;;;;;;;;;;;;;;;26.65;38.60;95157.66;4936751;29;7034;-56
2024/02/05 03:56:18;;;;;;;;;;;;;;;26.67;37.51;95157.91;4941832;29;6984;-56
2024/02/05 03:58:53;;;;;;;;;;;;;;;26.68;38.09;95156.66;4949508;29;7231;-56
2024/02/05 04:01:19;;;;;;;;;;;;;;;26.69;38.21;95149.88;4949316;29;7096;-56
2024/02/05 04:03:44;;;;;;;;;;;;;;;26.65;37.83;95158.41;4950413;29;8714;-56
2024/02/05 04:06:13;;;;;;;;;;;;;;;26.66;37.55;95153.66;4949337;29;6984;-56
2024/02/05 04:08:40;;;;;;;;;;;;;;;26.68;37.74;95153.91;4933611;29;9607;-57
2024/02/05 04:11:07;;;;;;;;;;;;;;;26.63;38.20;95155.41;4938503;28;7004;-56
2024/02/05 04:13:35;;;;;;;;;;;;;;;26.61;38.02;95149.63;4963221;28;6976;-56
2024/02/05 04:16:23;;;;;;;;;;;;;;;26.63;37.85;95160.16;4971652;28;9113;-56
2024/02/05 04:19:02;;;;;;;;;;;;;;;26.67;38.01;95157.91;4969881;28;6996;-56
2024/02/05 04:21:34;;;;;;;;;;;;;;;26.68;38.17;95159.44;5056545;28;9239;-57
2024/02/05 04:24:00;;;;;;;;;;;;;;;26.64;38.01;95159.66;5052554;28;9121;-57
2024/02/05 04:26:27;;;;;;;;;;;;;;;26.61;38.11;95160.66;5051507;28;7080;-56
2024/02/05 04:29:14;;;;;;;;;;;;;;;26.63;38.01;95168.44;5058856;28;7234;-56
2024/02/05 04:31:51;;;;;;;;;;;;;;;26.62;37.85;95161.44;5047026;28;9569;-57
2024/02/05 04:34:17;;;;;;;;;;;;;;;26.61;38.11;95154.41;5054938;28;6995;-57
2024/02/05 04:36:52;;;;;;;;;;;;;;;26.64;37.98;95167.19;5051341;28;9042;-57
2024/02/05 04:39:25;;;;;;;;;;;;;;;26.63;37.86;95160.16;5063884;28;7183;-57
2024/02/05 04:42:11;;;;;;;;;;;;;;;26.65;38.07;95160.41;5052457;28;7348;-57
2024/02/05 04:45:06;;;;;;;;;;;;;;;26.65;37.77;95157.66;5049076;28;9136;-57
2024/02/05 04:47:41;;;;;;;;;;;;;;;26.60;37.97;95155.66;5014337;28;7278;-57
2024/02/05 04:50:22;;;;;;;;;;;;;;;26.65;37.86;95155.66;5015040;28;9261;-57
2024/02/05 04:52:48;;;;;;;;;;;;;;;26.61;38.39;95152.41;5016126;28;7239;-56
2024/02/05 04:55:14;;;;;;;;;;;;;;;26.61;38.05;95151.63;5017831;28;9096;-56
2024/02/05 04:57:50;;;;;;;;;;;;;;;26.62;38.01;95144.88;5009048;28;7885;-56
2024/02/05 05:00:19;;;;;;;;;;;;;;;26.59;38.08;95154.13;5013917;28;7414;-57
2024/02/05 05:02:47;;;;;;;;;;;;;;;26.60;38.10;95159.16;5011742;28;6983;-56
2024/02/05 05:05:13;;;;;;;;;;;;;;;26.57;38.50;95148.38;5013310;28;7040;-56
2024/02/05 05:08:08;;;;;;;;;;;;;;;26.60;38.28;95150.13;5014679;28;7209;-56
2024/02/05 05:10:46;;;;;;;;;;;;;;;26.60;38.01;95148.13;5004096;28;7204;-56
2024/02/05 05:13:13;;;;;;;;;;;;;;;26.62;38.38;95158.66;4998220;28;9405;-56
2024/02/05 05:15:40;;;;;;;;;;;;;;;26.55;37.89;95159.16;5013358;28;9382;-56
2024/02/05 05:18:18;;;;;;;;;;;;;;;26.51;38.38;95153.88;5013339;28;6919;-56
2024/02/05 05:20:54;;;;;;;;;;;;;;;26.52;38.15;95157.38;5012798;28;7313;-56
2024/02/05 05:23:36;;;;;;;;;;;;;;;26.55;37.95;95153.63;5020092;28;8700;-56
2024/02/05 05:26:03;;;;;;;;;;;;;;;26.47;37.96;95160.91;5048150;28;6998;-56
2024/02/05 05:28:32;;;;;;;;;;;;;;;26.44;38.64;95157.13;5062270;28;7237;-56
2024/02/05 05:31:00;;;;;;;;;;;;;;;26.44;38.36;95159.13;5067190;28;8180;-56
2024/02/05 05:33:26;;;;;;;;;;;;;;;26.39;38.53;95163.38;5052497;28;7246;-56
2024/02/05 05:36:05;;;;;;;;;;;;;;;26.46;38.84;95167.66;5062099;28;8109;-56
2024/02/05 05:38:32;;;;;;;;;;;;;;;26.43;38.47;95161.13;5055577;28;7212;-56
2024/02/05 05:41:11;;;;;;;;;;;;;;;26.42;38.80;95161.63;5067978;28;9085;-56
2024/02/05 05:43:38;;;;;;;;;;;;;;;26.40;38.54;95159.38;5050910;28;7259;-56
2024/02/05 05:46:33;;;;;;;;;;;;;;;26.43;38.61;95168.63;5065840;28;7122;-56
2024/02/05 05:49:08;;;;;;;;;;;;;;;26.47;38.21;95171.94;5015208;28;8760;-56
2024/02/05 05:51:36;;;;;;;;;;;;;;;26.52;38.47;95171.94;5019452;28;7188;-56
2024/02/05 05:54:02;;;;;;;;;;;;;;;26.47;38.13;95160.91;5014780;28;7518;-56
2024/02/05 05:56:28;;;;;;;;;;;;;;;26.47;37.82;95167.16;5014551;28;7177;-56
2024/02/05 05:58:54;;;;;;;;;;;;;;;26.49;38.54;95158.41;5013761;28;7402;-56
2024/02/05 06:01:35;;;;;;;;;;;;;;;26.49;38.41;95169.44;5013012;28;8995;-38
2024/02/05 06:04:11;;;;;;;;;;;;;;;26.43;38.49;95158.38;5030188;28;6852;-57
2024/02/05 06:06:58;;;;;;;;;;;;;;;26.46;38.54;95159.38;5021856;28;7264;-57
2024/02/05 06:09:26;;;;;;;;;;;;;;;26.45;38.65;95164.13;5014058;28;8975;-57
2024/02/05 06:12:03;;;;;;;;;;;;;;;26.50;38.51;95171.69;5013255;28;7096;-56
2024/02/05 06:15:01;;;;;;;;;;;;;;;26.48;38.52;95167.91;5012377;28;9056;-57
2024/02/05 06:17:27;;;;;;;;;;;;;;;26.47;38.34;95164.38;4996258;28;7392;-57
2024/02/05 06:20:06;;;;;;;;;;;;;;;26.53;38.24;95167.19;5007352;28;7234;-57
2024/02/05 06:22:35;;;;;;;;;;;;;;;26.53;37.78;95176.22;4988194;28;8715;-56
2024/02/05 06:25:10;;;;;;;;;;;;;;;26.53;38.12;95165.19;5005282;28;9227;-57
2024/02/05 06:27:44;;;;;;;;;;;;;;;26.49;37.62;95170.16;5013265;28;7236;-57
2024/02/05 06:30:37;;;;;;;;;;;;;;;26.53;37.75;95178.22;5009961;28;8461;-57
2024/02/05 06:33:24;;;;;;;;;;;;;;;26.52;37.53;95182.97;5011626;28;7244;-56
2024/02/05 06:35:52;;;;;;;;;;;;;;;26.49;37.46;95183.22;5003976;28;7474;-56
2024/02/05 06:38:18;;;;;;;;;;;;;;;26.48;37.87;95190.75;5027247;28;8763;-56
2024/02/05 06:40:44;;;;;;;;;;;;;;;26.47;37.71;95188.50;5020477;28;7344;-56
2024/02/05 06:43:10;;;;;;;;;;;;;;;26.44;38.05;95186.72;5013307;28;7103;-56
2024/02/05 06:45:37;;;;;;;;;;;;;;;26.45;38.19;95188.19;5010372;28;7215;-56
2024/02/05 06:48:04;;;;;;;;;;;;;;;26.45;38.26;95199.25;5000898;28;7037;-56
2024/02/05 06:50:30;;;;;;;;;;;;;;;26.42;38.30;95189.97;5009104;28;9054;-56
2024/02/05 06:52:56;;;;;;;;;;;;;;;26.42;38.25;95186.47;5017510;28;7900;-56
2024/02/05 06:55:22;;;;;;;;;;;;;;;26.43;38.18;95199.75;5051390;28;7316;-56
2024/02/05 06:57:50;;;;;;;;;;;;;;;26.39;38.89;95199.22;5054329;28;7291;-56
2024/02/05 07:00:16;;;;;;;;;;;;;;;26.39;38.17;95204.00;5050246;28;7059;-56
2024/02/05 07:02:42;;;;;;;;;;;;;;;26.39;38.55;95201.22;5052185;28;7037;-57
2024/02/05 07:05:20;;;;;;;;;;;;;;;26.42;37.89;95205.75;5037551;28;7606;-57
2024/02/05 07:07:53;;;;;;;;;;;;;;;26.43;38.63;95207.25;5045061;28;7276;-57
2024/02/05 07:10:19;;;;;;;;;;;;;;;26.44;38.36;95212.28;5077180;28;7492;-57
2024/02/05 07:12:45;;;;;;;;;;;;;;;26.48;38.72;95217.56;5043976;28;6946;-37
2024/02/05 07:15:14;;;;;;;;;;;;;;;26.49;38.41;95216.31;5050698;28;7418;-37
2024/02/05 07:17:43;;;;;;;;;;;;;;;26.53;37.74;95219.59;5053904;28;9082;-38
2024/02/05 07:20:21;;;;;;;;;;;;;;;26.53;38.22;95223.13;5067520;28;7264;-37
2024/02/05 07:22:48;;;;;;;;;;;;;;;26.51;37.82;95224.84;5070931;28;9370;-37
2024/02/05 07:25:15;;;;;;;;;;;;;;;26.51;38.26;95224.84;5048097;28;9279;-37
2024/02/05 07:27:41;;;;;;;;;;;;;;;26.56;37.99;95226.88;5064721;28;6994;-37
2024/02/05 07:30:12;;;;;;;;;;;;;;;26.58;38.21;95216.84;5066385;28;7179;-38
2024/02/05 07:32:41;;;;;;;;;;;;;;;26.59;37.86;95226.63;5051143;28;9406;-37
2024/02/05 07:35:44;;;;;;;;;;;;;;;26.61;37.97;95228.91;5072257;28;7258;-38
2024/02/05 07:38:11;;;;;;;;;;;;;;;26.64;38.21;95225.16;5067264;28;9257;-38
2024/02/05 07:40:48;;;;;;;;;;;;;;;26.64;37.95;95227.91;5063811;28;9306;-37
2024/02/05 07:43:16;;;;;;;;;;;;;;;26.63;37.91;95220.88;5069373;28;7077;-37
2024/02/05 07:45:57;;;;;;;;;;;;;;;26.64;37.96;95227.91;5068361;28;7351;-37
2024/02/05 07:48:31;;;;;;;;;;;;;;;26.64;38.38;95233.44;5051799;28;8978;-37
2024/02/05 07:50:57;;;;;;;;;;;;;;;26.63;38.13;95231.91;5050215;28;8794;-37
2024/02/05 07:53:23;;;;;;;;;;;;;;;26.62;38.18;95219.38;5054352;28;7236;-38
2024/02/05 07:55:52;;;;;;;;;;;;;;;26.60;38.34;95221.88;5051801;28;7147;-38
2024/02/05 07:58:18;;;;;;;;;;;;;;;26.59;38.45;95228.63;5068317;28;7178;-38
2024/02/05 08:00:45;;;;;;;;;;;;;;;26.59;38.46;95223.88;5055840;28;8631;-37
2024/02/05 08:03:13;;;;;;;;;;;;;;;26.57;38.19;95214.59;5051941;28;6999;-38
2024/02/05 08:05:47;;;;;;;;;;;;;;;26.60;37.97;95221.88;5061363;28;9011;-38
2024/02/05 08:08:14;;;;;;;;;;;;;;;26.56;38.50;95218.59;5067069;28;7453;-38
2024/02/05 08:10:46;;;;;;;;;;;;;;;26.57;38.26;95217.34;5054639;28;7475;-38
2024/02/05 08:13:13;;;;;;;;;;;;;;;26.62;38.67;95219.38;5070067;28;7239;-38
2024/02/05 08:15:39;;;;;;;;;;;;;;;26.61;38.31;95215.84;5068965;28;9027;-38
2024/02/05 08:18:12;;;;;;;;;;;;;;;26.60;38.24;95206.06;5046669;28;7003;-39
2024/02/05 08:20:39;;;;;;;;;;;;;;;26.63;38.18;95207.06;5070631;28;8788;-56
2024/02/05 08:23:05;;;;;;;;;;;;;;;26.62;37.97;95202.81;5072148;28;8848;-39
2024/02/05 08:25:37;;;;;;;;;;;;;;;26.63;38.39;95201.56;5058601;28;7247;-39
2024/02/05 08:28:05;;;;;;;;;;;;;;;26.62;37.85;95205.59;5053682;28;7030;-38
2024/02/05 08:30:34;;;;;;;;;;;;;;;26.63;38.12;95198.78;5053842;28;9073;-38
2024/02/05 08:33:02;;;;;;;;;;;;;;;26.59;38.27;95199.03;5056612;28;9061;-38
2024/02/05 08:35:29;;;;;;;;;;;;;;;26.62;38.71;95203.56;5068555;28;7696;-38
2024/02/05 08:37:55;;;;;;;;;;;;;;;26.65;38.01;95199.03;5072703;28;9070;-38
2024/02/05 08:40:20;;;;;;;;;;;;;;;26.65;37.95;95199.81;5071809;28;8742;-38
2024/02/05 08:42:52;;;;;;;;;;;;;;;26.59;37.80;95198.28;5072318;28;9413;-38
2024/02/05 08:45:30;;;;;;;;;;;;;;;26.64;37.82;95208.59;5069882;28;7270;-38
2024/02/05 08:48:00;;;;;;;;;;;;;;;26.64;37.34;95197.56;5050787;28;7302;-38
2024/02/05 08:50:33;;;;;;;;;;;;;;;26.64;38.25;95200.31;5056298;28;7274;-38
2024/02/05 08:53:00;;;;;;;;;;;;;;;26.62;37.61;95192.50;5069468;28;8635;-38
2024/02/05 08:55:28;;;;;;;;;;;;;;;26.66;37.59;95206.09;5056950;28;8616;-38
2024/02/05 08:57:54;;;;;;;;;;;;;;;26.66;37.60;95201.31;5052304;28;7753;-38
2024/02/05 09:00:21;;;;;;;;;;;;;;;26.67;37.86;95202.06;5065809;28;9179;-38
2024/02/05 09:03:06;;;;;;;;;;;;;;;26.65;37.79;95196.28;5071392;28;7020;-38
2024/02/05 09:05:42;;;;;;;;;;;;;;;26.62;37.92;95195.28;5074426;28;7243;-38
2024/02/05 09:08:09;;;;;;;;;;;;;;;26.58;37.54;95191.25;5055358;28;6921;-38
2024/02/05 09:10:48;;;;;;;;;;;;;;;26.59;38.27;95192.78;5058204;28;7905;-38
2024/02/05 09:13:27;;;;;;;;;;;;;;;26.57;38.30;95192.50;5072805;28;7031;-38
2024/02/05 09:16:02;;;;;;;;;;;;;;;26.57;38.02;95192.50;5072040;28;9508;-38
2024/02/05 09:18:40;;;;;;;;;;;;;;;26.58;38.21;95194.00;5058060;28;7304;-38
2024/02/05 09:21:46;;;;;;;;;;;;;;;26.60;38.24;95205.31;5073511;28;7206;-38
2024/02/05 09:24:23;;;;;;;;;;;;;;;26.57;38.28;95200.78;5054927;28;7275;-38
2024/02/05 09:27:08;;;;;;;;;;;;;;;26.57;37.89;95198.78;5066131;28;7887;-38
2024/02/05 09:29:35;;;;;;;;;;;;;;;26.57;38.70;95195.28;5057851;28;7609;-38
2024/02/05 09:32:09;;;;;;;;;;;;;;;26.56;38.39;95197.28;5071310;28;9101;-38
2024/02/05 09:34:44;;;;;;;;;;;;;;;26.57;38.34;95200.78;5048636;28;7004;-38
2024/02/05 09:37:41;;;;;;;;;;;;;;;26.60;38.30;95206.06;5072252;28;7240;-38
2024/02/05 09:40:41;;;;;;;;;;;;;;;26.59;38.22;95210.09;5053453;28;7194;-38
2024/02/05 09:43:20;;;;;;;;;;;;;;;26.60;38.44;95205.31;4998958;28;7347;-57
2024/02/05 09:45:50;;;;;;;;;;;;;;;26.59;38.30;95199.03;4988127;28;7066;-57
2024/02/05 09:48:17;;;;;;;;;;;;;;;26.59;37.99;95201.03;4992084;28;7593;-57
2024/02/05 09:50:46;;;;;;;;;;;;;;;26.61;38.18;95204.06;4991731;28;7960;-57
2024/02/05 09:53:17;;;;;;;;;;;;;;;26.62;38.15;95208.34;5009504;28;7054;-57
2024/02/05 09:55:48;;;;;;;;;;;;;;;26.62;38.66;95195.28;5003209;28;7260;-57
2024/02/05 09:58:30;;;;;;;;;;;;;;;26.66;38.07;95195.06;5005511;28;7221;-58
2024/02/05 10:01:11;;;;;;;;;;;;;;;26.65;37.88;95188.78;5008877;28;7493;-57
2024/02/05 10:03:47;;;;;;;;;;;;;;;26.69;38.20;95189.28;4997883;28;7340;-56
2024/02/05 10:06:17;;;;;;;;;;;;;;;26.70;38.11;95192.78;4994818;28;8902;-57
2024/02/05 10:08:58;;;;;;;;;;;;;;;26.71;38.25;95181.25;4996028;28;7547;-56
2024/02/05 10:11:44;;;;;;;;;;;;;;;26.74;38.17;95187.81;5012281;28;7482;-57
2024/02/05 10:14:25;;;;;;;;;;;;;;;26.71;38.53;95178.50;5005700;28;6974;-56
2024/02/05 10:17:00;;;;;;;;;;;;;;;26.74;37.88;95180.28;4995657;28;6992;-56
2024/02/05 10:19:26;;;;;;;;;;;;;;;26.76;38.27;95179.78;5035953;28;6996;-56
2024/02/05 10:21:59;;;;;;;;;;;;;;;26.79;37.87;95178.78;5049563;28;8972;-57
2024/02/05 10:24:45;;;;;;;;;;;;;;;26.78;38.11;95174.50;5067725;28;7122;-56
2024/02/05 10:27:20;;;;;;;;;;;;;;;26.81;37.94;95159.72;5056709;28;7260;-57
2024/02/05 10:30:09;;;;;;;;;;;;;;;26.82;38.14;95161.22;5041033;28;7286;-57
2024/02/05 10:32:46;;;;;;;;;;;;;;;26.82;37.81;95156.47;5066912;28;6981;-58
2024/02/05 10:35:27;;;;;;;;;;;;;;;26.83;38.15;95154.47;5067508;28;7335;-58
2024/02/05 10:38:13;;;;;;;;;;;;;;;26.83;37.66;95151.69;5050657;28;7331;-57
2024/02/05 10:40:46;;;;;;;;;;;;;;;26.81;37.81;95148.69;5052316;28;9621;-57
2024/02/05 10:43:14;;;;;;;;;;;;;;;26.79;37.68;95140.91;5063474;28;7302;-58
2024/02/05 10:45:41;;;;;;;;;;;;;;;26.81;37.63;95143.16;5054599;28;7001;-58
2024/02/05 10:48:12;;;;;;;;;;;;;;;26.80;38.43;95142.41;5047266;28;7229;-58
2024/02/05 10:50:41;;;;;;;;;;;;;;;26.81;38.25;95132.13;5052640;28;7237;-57
2024/02/05 10:53:10;;;;;;;;;;;;;;;26.84;38.26;95139.38;5039658;28;7551;-40
2024/02/05 10:55:39;;;;;;;;;;;;;;;26.83;38.29;95126.84;5055600;28;7199;-40
2024/02/05 10:58:07;;;;;;;;;;;;;;;26.83;38.31;95121.34;5072297;28;9077;-41
2024/02/05 11:00:34;;;;;;;;;;;;;;;26.83;38.20;95124.84;5048700;28;9493;-40
2024/02/05 11:03:19;;;;;;;;;;;;;;;26.87;37.67;95130.88;5069849;28;8543;-40
2024/02/05 11:05:53;;;;;;;;;;;;;;;26.88;38.29;95126.13;5062166;28;7330;-40
2024/02/05 11:08:35;;;;;;;;;;;;;;;26.88;38.11;95118.56;5069579;28;7075;-41
2024/02/05 11:11:20;;;;;;;;;;;;;;;26.89;38.08;95113.81;5068570;28;7279;-42
2024/02/05 11:14:17;;;;;;;;;;;;;;;26.92;37.72;95126.59;5051490;28;6885;-40
2024/02/05 11:16:45;;;;;;;;;;;;;;;26.89;38.00;95111.78;5072161;28;7207;-40
2024/02/05 11:19:17;;;;;;;;;;;;;;;26.90;37.69;95110.53;5061558;28;6994;-40
2024/02/05 11:21:54;;;;;;;;;;;;;;;26.92;37.90;95109.28;5071997;28;7054;-39
2024/02/05 11:24:24;;;;;;;;;;;;;;;26.92;37.74;95110.03;5065351;28;7260;-40
2024/02/05 11:26:55;;;;;;;;;;;;;;;26.93;37.93;95103.25;5068204;28;8810;-39
2024/02/05 11:29:34;;;;;;;;;;;;;;;26.94;38.14;95098.50;5054899;28;7012;-40
2024/02/05 11:32:10;;;;;;;;;;;;;;;26.95;38.25;95089.69;5055841;28;9172;-39
2024/02/05 11:34:44;;;;;;;;;;;;;;;26.97;37.93;95083.69;5047997;28;8937;-40
2024/02/05 11:37:16;;;;;;;;;;;;;;;26.98;37.63;95069.38;5067211;28;7146;-41
2024/02/05 11:39:51;;;;;;;;;;;;;;;26.98;37.66;95074.91;5069103;28;9101;-40
2024/02/05 11:42:31;;;;;;;;;;;;;;;26.98;37.59;95069.38;5052237;28;9002;-41
2024/02/05 11:44:59;;;;;;;;;;;;;;;26.96;38.03;95060.84;5051558;28;9044;-40
2024/02/05 11:47:25;;;;;;;;;;;;;;;26.95;38.07;95055.84;5070656;28;7034;-41
2024/02/05 11:49:55;;;;;;;;;;;;;;;26.93;38.22;95059.09;5066783;28;7229;-40
2024/02/05 11:52:21;;;;;;;;;;;;;;;26.95;37.97;95048.28;5055037;28;7062;-40
2024/02/05 11:54:47;;;;;;;;;;;;;;;26.94;37.93;95046.03;5069307;28;9079;-40
2024/02/05 11:57:15;;;;;;;;;;;;;;;26.96;38.19;95038.75;5070202;28;7020;-42
2024/02/05 11:59:47;;;;;;;;;;;;;;;26.98;38.38;95032.72;5051978;28;7321;-40
2024/02/05 12:02:13;;;;;;;;;;;;;;;26.99;38.06;95045.28;5070953;28;9258;-42
2024/02/05 12:04:40;;;;;;;;;;;;;;;27.04;38.10;95036.97;5067967;28;7264;-40
2024/02/05 12:07:10;;;;;;;;;;;;;;;27.06;38.14;95044.75;5045490;28;7379;-40
2024/02/05 12:09:42;;;;;;;;;;;;;;;27.10;37.82;95037.72;5049883;28;9100;-40
2024/02/05 12:12:18;;;;;;;;;;;;;;;27.08;37.50;95034.72;5050529;28;7445;-41
2024/02/05 12:14:54;;;;;;;;;;;;;;;27.11;38.55;95039.25;5064788;28;7780;-41
2024/02/05 12:17:20;;;;;;;;;;;;;;;27.12;37.67;95040.00;5068597;28;7266;-41
2024/02/05 12:19:47;;;;;;;;;;;;;;;27.16;37.56;95035.72;5051121;28;9002;-41
2024/02/05 12:22:14;;;;;;;;;;;;;;;27.18;37.08;95033.19;5053151;28;7220;-42
2024/02/05 12:24:41;;;;;;;;;;;;;;;27.17;36.86;95026.16;5055852;28;8908;-42
2024/02/05 12:27:07;;;;;;;;;;;;;;;27.19;37.42;95033.94;5063362;28;7265;-44
2024/02/05 12:29:33;;;;;;;;;;;;;;;27.22;37.42;95025.41;5053432;28;7219;-42
2024/02/05 12:32:04;;;;;;;;;;;;;;;27.25;37.33;95024.38;5062896;28;9202;-41
2024/02/05 12:34:30;;;;;;;;;;;;;;;27.26;37.33;95016.84;5066181;28;7003;-41
2024/02/05 12:36:57;;;;;;;;;;;;;;;27.24;37.20;95016.59;5043767;28;7189;-41
2024/02/05 12:39:24;;;;;;;;;;;;;;;27.27;37.42;95007.31;5040508;28;7199;-41
2024/02/05 12:41:55;;;;;;;;;;;;;;;27.28;37.69;95006.78;5051329;28;7031;-41
2024/02/05 12:44:22;;;;;;;;;;;;;;;27.27;37.29;94994.25;5048029;28;7439;-41
2024/02/05 12:46:48;;;;;;;;;;;;;;;27.29;37.57;94991.75;5059774;28;7187;-41
2024/02/05 12:49:14;;;;;;;;;;;;;;;27.31;37.52;94994.75;5070085;28;8185;-42
2024/02/05 12:51:41;;;;;;;;;;;;;;;27.33;37.40;94992.22;5049359;28;7235;-41
2024/02/05 12:54:09;;;;;;;;;;;;;;;27.34;37.23;94979.16;5062404;28;7895;-41
2024/02/05 12:56:35;;;;;;;;;;;;;;;27.37;37.05;94980.94;5060082;28;7130;-43
2024/02/05 12:59:15;;;;;;;;;;;;;;;27.39;37.40;94978.41;5070311;28;9527;-42
2024/02/05 13:01:43;;;;;;;;;;;;;;;27.40;37.49;94974.41;5062173;28;7096;-41
2024/02/05 13:04:15;;;;;;;;;;;;;;;27.40;37.66;94966.88;5046430;28;7415;-41
2024/02/05 13:06:43;;;;;;;;;;;;;;;27.44;37.50;94961.81;5068193;28;7008;-44
2024/02/05 13:09:13;;;;;;;;;;;;;;;27.47;37.28;94960.06;5049020;28;7147;-42
2024/02/05 13:11:39;;;;;;;;;;;;;;;27.48;37.50;94956.78;5031637;28;9520;-38
2024/02/05 13:14:10;;;;;;;;;;;;;;;27.48;37.23;94959.53;5067613;28;7236;-38
2024/02/05 13:16:35;;;;;;;;;;;;;;;27.52;37.36;94948.97;5046648;28;7159;-38
2024/02/05 13:19:14;;;;;;;;;;;;;;;27.54;37.64;94938.16;5049526;28;9052;-38
2024/02/05 13:21:41;;;;;;;;;;;;;;;27.57;37.65;94936.38;5070361;28;7164;-38
2024/02/05 13:24:18;;;;;;;;;;;;;;;27.54;37.64;94924.34;5073385;28;7061;-39
2024/02/05 13:27:03;;;;;;;;;;;;;;;27.59;37.27;94928.31;5060956;28;8041;-37